createdAt,value
2023-04-27T00:00:36.494Z,7.4429
2023-04-27T00:01:44.558Z,8.9714
2023-04-27T00:02:52.801Z,9.9571
2023-04-27T00:04:00.853Z,8.0357
2023-04-27T00:05:09.095Z,9.2214
2023-04-27T00:06:16.978Z,7.0143
2023-04-27T00:07:24.910Z,8.7214
2023-04-27T00:08:32.844Z,7.6429
2023-04-27T00:09:40.891Z,8.6214
2023-04-27T00:10:48.964Z,8.0643
2023-04-27T00:11:57.180Z,8.5714
2023-04-27T00:13:05.179Z,8.3214
2023-04-27T00:14:13.277Z,8.7000
2023-04-27T00:15:21.341Z,8.8357
2023-04-27T00:16:29.434Z,9.3500
2023-04-27T00:17:37.506Z,8.2286
2023-04-27T00:18:45.499Z,8.5000
2023-04-27T00:19:53.561Z,7.3571
2023-04-27T00:21:01.665Z,9.4000
2023-04-27T00:22:09.735Z,8.1786
2023-04-27T00:23:17.634Z,8.6071
2023-04-27T00:24:25.693Z,6.5929
2023-04-27T00:25:33.739Z,8.1643
2023-04-27T00:26:41.999Z,8.4000
2023-04-27T00:27:50.051Z,7.4714
2023-04-27T00:28:58.098Z,8.8929
2023-04-27T00:30:06.158Z,8.8643
2023-04-27T00:31:14.158Z,8.8214
2023-04-27T00:32:22.283Z,8.4857
2023-04-27T00:33:30.352Z,9.5786
2023-04-27T00:34:38.342Z,6.9214
2023-04-27T00:35:46.423Z,6.7786
2023-04-27T00:36:54.477Z,9.7000
2023-04-27T00:38:02.409Z,6.7429
2023-04-27T00:39:10.523Z,7.3786
2023-04-27T00:40:18.554Z,8.8000
2023-04-27T00:41:27.062Z,8.0643
2023-04-27T00:42:34.805Z,9.1214
2023-04-27T00:43:43.078Z,9.1929
2023-04-27T00:44:50.966Z,8.8071
2023-04-27T00:45:58.996Z,8.7286
2023-04-27T00:47:07.260Z,9.0143
2023-04-27T00:48:15.103Z,10.3643
2023-04-27T00:49:23.211Z,9.5429
2023-04-27T00:50:31.301Z,7.1000
2023-04-27T00:51:39.295Z,8.7429
2023-04-27T00:52:47.265Z,8.9286
2023-04-27T00:53:55.326Z,8.4429
2023-04-27T00:55:03.391Z,8.6357
2023-04-27T00:56:11.856Z,7.2929
2023-04-27T00:57:19.606Z,9.2857
2023-04-27T00:58:27.726Z,11.3143
2023-04-27T00:59:35.767Z,7.6214
2023-04-27T01:00:43.824Z,9.5286
2023-04-27T01:01:51.918Z,8.3929
2023-04-27T01:03:00.056Z,9.2929
2023-04-27T01:04:08.267Z,9.8143
2023-04-27T01:05:16.068Z,8.8214
2023-04-27T01:06:24.112Z,8.9571
2023-04-27T01:07:32.109Z,8.7000
2023-04-27T01:08:40.154Z,8.1643
2023-04-27T01:09:48.217Z,9.3857
2023-04-27T01:10:56.346Z,6.7429
2023-04-27T01:12:04.621Z,6.8786
2023-04-27T01:13:12.658Z,9.5929
2023-04-27T01:14:20.572Z,9.9286
2023-04-27T01:15:28.695Z,7.9214
2023-04-27T01:16:36.802Z,8.3214
2023-04-27T01:17:44.792Z,9.3286
2023-04-27T01:18:53.028Z,7.8214
2023-04-27T01:20:00.905Z,7.5214
2023-04-27T01:21:08.966Z,8.6357
2023-04-27T01:22:16.901Z,8.0786
2023-04-27T01:23:25.002Z,8.0857
2023-04-27T01:24:33.072Z,8.7857
2023-04-27T01:25:41.232Z,7.9357
2023-04-27T01:26:49.361Z,8.2286
2023-04-27T01:27:57.493Z,8.2000
2023-04-27T01:29:05.422Z,7.9071
2023-04-27T01:30:13.492Z,9.1571
2023-04-27T01:31:21.593Z,8.7929
2023-04-27T01:32:29.631Z,8.6714
2023-04-27T01:33:37.670Z,8.0714
2023-04-27T01:34:45.748Z,8.8429
2023-04-27T01:35:53.954Z,7.9714
2023-04-27T01:37:01.743Z,8.9214
2023-04-27T01:38:09.817Z,10.9214
2023-04-27T01:39:17.878Z,11.5643
2023-04-27T01:40:26.125Z,10.1714
2023-04-27T01:41:34.175Z,9.4286
2023-04-27T01:42:42.451Z,8.9143
2023-04-27T01:43:50.370Z,9.6071
2023-04-27T01:44:58.321Z,8.9429
2023-04-27T01:46:06.399Z,9.9143
2023-04-27T01:47:14.473Z,9.1214
2023-04-27T01:48:22.465Z,10.8000
2023-04-27T01:49:30.604Z,9.9500
2023-04-27T01:50:38.661Z,7.5571
2023-04-27T01:51:46.548Z,8.9143
2023-04-27T01:52:54.661Z,9.1286
2023-04-27T01:54:02.662Z,9.7571
2023-04-27T01:55:11.030Z,9.3143
2023-04-27T01:56:18.934Z,8.9929
2023-04-27T01:57:27.076Z,8.4000
2023-04-27T01:58:35.133Z,9.1071
2023-04-27T01:59:43.235Z,10.2643
2023-04-27T02:00:51.204Z,7.4357
2023-04-27T02:01:59.289Z,8.0357
2023-04-27T02:03:07.483Z,11.0000
2023-04-27T02:04:15.719Z,9.5786
2023-04-27T02:05:23.322Z,9.2857
2023-04-27T02:06:31.407Z,13.8429
2023-04-27T02:07:39.462Z,9.9429
2023-04-27T02:08:47.773Z,9.0143
2023-04-27T02:09:55.797Z,9.9643
2023-04-27T02:11:03.762Z,8.7571
2023-04-27T02:12:11.946Z,10.4786
2023-04-27T02:13:19.888Z,8.6000
2023-04-27T02:14:27.971Z,9.7714
2023-04-27T02:15:36.152Z,9.1143
2023-04-27T02:16:44.113Z,10.1929
2023-04-27T02:17:52.192Z,8.8643
2023-04-27T02:19:00.215Z,10.2286
2023-04-27T02:20:08.153Z,9.0714
2023-04-27T02:21:16.245Z,8.4643
2023-04-27T02:22:24.271Z,9.0643
2023-04-27T02:23:32.449Z,10.7143
2023-04-27T02:24:40.640Z,8.1143
2023-04-27T02:25:48.580Z,9.4571
2023-04-27T02:26:56.849Z,9.2786
2023-04-27T02:28:04.692Z,9.0429
2023-04-27T02:29:13.060Z,9.6643
2023-04-27T02:30:20.889Z,8.9429
2023-04-27T02:31:29.056Z,8.6714
2023-04-27T02:32:36.997Z,8.5071
2023-04-27T02:33:44.997Z,8.3143
2023-04-27T02:34:52.959Z,7.9857
2023-04-27T02:36:01.008Z,9.3214
2023-04-27T02:37:09.033Z,9.6714
2023-04-27T02:38:17.299Z,11.2786
2023-04-27T02:39:25.309Z,12.9143
2023-04-27T02:40:33.504Z,10.8714
2023-04-27T02:41:41.457Z,9.3071
2023-04-27T02:42:49.522Z,8.1071
2023-04-27T02:43:57.606Z,9.9429
2023-04-27T02:45:05.675Z,9.4143
2023-04-27T02:46:13.740Z,8.6071
2023-04-27T02:47:21.762Z,8.3929
2023-04-27T02:48:29.926Z,10.0500
2023-04-27T02:49:38.176Z,10.5429
2023-04-27T02:50:45.793Z,8.9000
2023-04-27T02:51:53.863Z,8.9929
2023-04-27T02:53:02.082Z,8.9357
2023-04-27T02:54:10.143Z,8.8643
2023-04-27T02:55:18.257Z,9.1929
2023-04-27T02:56:26.425Z,9.2214
2023-04-27T02:57:34.305Z,10.3214
2023-04-27T02:58:42.393Z,11.6786
2023-04-27T02:59:50.459Z,8.5357
2023-04-27T03:00:58.561Z,8.2000
2023-04-27T03:02:06.587Z,9.4357
2023-04-27T03:03:14.905Z,10.9143
2023-04-27T03:04:22.624Z,8.3929
2023-04-27T03:05:30.630Z,8.8000
2023-04-27T03:06:38.707Z,8.0214
2023-04-27T03:07:46.934Z,8.0071
2023-04-27T03:08:54.955Z,7.5643
2023-04-27T03:10:02.969Z,8.3429
2023-04-27T03:11:11.113Z,10.6357
2023-04-27T03:12:19.300Z,8.0714
2023-04-27T03:13:27.198Z,9.9786
2023-04-27T03:14:35.252Z,8.8571
2023-04-27T03:15:43.549Z,9.8214
2023-04-27T03:16:51.511Z,7.8857
2023-04-27T03:17:59.521Z,8.5929
2023-04-27T03:19:07.385Z,9.3214
2023-04-27T03:20:15.440Z,8.8071
2023-04-27T03:21:23.476Z,8.4786
2023-04-27T03:22:31.748Z,9.5500
2023-04-27T03:23:39.775Z,8.0500
2023-04-27T03:24:47.841Z,8.3214
2023-04-27T03:25:55.916Z,8.6000
2023-04-27T03:27:03.904Z,9.8571
2023-04-27T03:28:12.126Z,9.0571
2023-04-27T03:29:20.095Z,9.5929
2023-04-27T03:30:28.134Z,8.5786
2023-04-27T03:31:36.236Z,7.9929
2023-04-27T03:32:47.039Z,9.4286
2023-04-27T03:33:57.063Z,7.6867
2023-04-27T03:35:05.134Z,8.8571
2023-04-27T03:36:13.165Z,9.8571
2023-04-27T03:37:21.345Z,10.7000
2023-04-27T03:38:29.421Z,11.3214
2023-04-27T03:39:37.484Z,11.9714
2023-04-27T03:40:45.582Z,12.4429
2023-04-27T03:41:53.668Z,12.4786
2023-04-27T03:43:01.685Z,11.1786
2023-04-27T03:44:09.852Z,10.5786
2023-04-27T03:45:17.782Z,11.2286
2023-04-27T03:46:25.979Z,9.1571
2023-04-27T03:47:33.977Z,7.1857
2023-04-27T03:48:41.829Z,8.7643
2023-04-27T03:49:49.914Z,9.6786
2023-04-27T03:50:58.056Z,9.3214
2023-04-27T03:52:06.208Z,9.6000
2023-04-27T03:53:14.225Z,9.8500
2023-04-27T03:54:22.245Z,9.2071
2023-04-27T03:55:30.353Z,11.2571
2023-04-27T03:56:38.481Z,11.7214
2023-04-27T03:57:46.586Z,9.5143
2023-04-27T03:58:54.591Z,10.8786
2023-04-27T04:00:02.687Z,10.1500
2023-04-27T04:01:11.116Z,10.7929
2023-04-27T04:02:18.709Z,11.1857
2023-04-27T04:03:26.958Z,9.2143
2023-04-27T04:04:34.953Z,10.0929
2023-04-27T04:05:42.911Z,11.9857
2023-04-27T04:06:51.025Z,11.7786
2023-04-27T04:07:59.039Z,13.3571
2023-04-27T04:09:07.285Z,11.5929
2023-04-27T04:10:15.161Z,12.1571
2023-04-27T04:11:23.264Z,12.0429
2023-04-27T04:12:31.314Z,11.3857
2023-04-27T04:13:39.422Z,10.8857
2023-04-27T04:14:47.535Z,11.5786
2023-04-27T04:15:55.658Z,10.4143
2023-04-27T04:17:03.449Z,11.5857
2023-04-27T04:18:11.555Z,12.1071
2023-04-27T04:19:20.760Z,10.2500
2023-04-27T04:20:32.677Z,11.1733
2023-04-27T04:21:40.683Z,9.9857
2023-04-27T04:22:48.777Z,11.5357
2023-04-27T04:23:56.845Z,11.5857
2023-04-27T04:25:04.962Z,11.9571
2023-04-27T04:26:12.974Z,12.2929
2023-04-27T04:27:20.988Z,11.1071
2023-04-27T04:28:29.015Z,10.0500
2023-04-27T04:29:37.082Z,9.8857
2023-04-27T04:30:45.019Z,9.1143
2023-04-27T04:31:53.176Z,9.1929
2023-04-27T04:33:01.177Z,7.9571
2023-04-27T04:34:09.342Z,10.3000
2023-04-27T04:35:17.392Z,11.5286
2023-04-27T04:36:25.428Z,12.1214
2023-04-27T04:37:33.537Z,9.7500
2023-04-27T04:38:41.583Z,10.6929
2023-04-27T04:39:49.655Z,10.9571
2023-04-27T04:40:57.833Z,12.2571
2023-04-27T04:42:05.810Z,13.2357
2023-04-27T04:43:13.801Z,12.1000
2023-04-27T04:44:21.865Z,13.1429
2023-04-27T04:45:29.812Z,15.0786
2023-04-27T04:46:37.947Z,14.1214
2023-04-27T04:47:45.938Z,15.6929
2023-04-27T04:48:54.847Z,12.4857
2023-04-27T04:50:02.418Z,14.5643
2023-04-27T04:51:10.216Z,14.9143
2023-04-27T04:52:18.438Z,15.7071
2023-04-27T04:53:26.280Z,13.3429
2023-04-27T04:54:34.414Z,13.6143
2023-04-27T04:55:42.475Z,12.1643
2023-04-27T04:56:50.632Z,12.5429
2023-04-27T04:57:58.622Z,10.9071
2023-04-27T04:59:06.571Z,10.3786
2023-04-27T05:00:14.603Z,12.3286
2023-04-27T05:01:22.673Z,11.0000
2023-04-27T05:02:30.756Z,11.5714
2023-04-27T05:03:38.960Z,12.3929
2023-04-27T05:04:47.143Z,14.0714
2023-04-27T05:05:55.113Z,11.8429
2023-04-27T05:07:03.090Z,11.7571
2023-04-27T05:08:11.062Z,14.0357
2023-04-27T05:09:19.178Z,12.9786
2023-04-27T05:10:27.194Z,10.0429
2023-04-27T05:11:35.353Z,10.4714
2023-04-27T05:12:43.356Z,9.9143
2023-04-27T05:13:51.477Z,11.1214
2023-04-27T05:14:59.338Z,13.0571
2023-04-27T05:16:07.468Z,12.4071
2023-04-27T05:17:15.493Z,10.4643
2023-04-27T05:18:23.633Z,9.3571
2023-04-27T05:19:31.776Z,11.0643
2023-04-27T05:20:39.735Z,11.2643
2023-04-27T05:21:47.987Z,11.8357
2023-04-27T05:22:55.889Z,10.8357
2023-04-27T05:24:03.927Z,11.8643
2023-04-27T05:25:12.097Z,13.0786
2023-04-27T05:26:20.045Z,11.5286
2023-04-27T05:27:28.096Z,11.2000
2023-04-27T05:28:36.177Z,11.1000
2023-04-27T05:29:44.103Z,11.7571
2023-04-27T05:30:52.201Z,10.7286
2023-04-27T05:32:00.357Z,11.4143
2023-04-27T05:33:08.449Z,13.4714
2023-04-27T05:34:16.597Z,12.7786
2023-04-27T05:35:24.569Z,12.4714
2023-04-27T05:36:32.609Z,11.5429
2023-04-27T05:37:40.572Z,10.8786
2023-04-27T05:38:48.693Z,11.7714
2023-04-27T05:39:56.813Z,12.2500
2023-04-27T05:41:04.826Z,11.9357
2023-04-27T05:42:12.867Z,13.1643
2023-04-27T05:43:20.963Z,13.2929
2023-04-27T05:44:28.911Z,13.0071
2023-04-27T05:45:37.005Z,10.8357
2023-04-27T05:46:45.013Z,11.3357
2023-04-27T05:47:53.232Z,14.4071
2023-04-27T05:49:01.361Z,11.7786
2023-04-27T05:50:09.353Z,11.9571
2023-04-27T05:51:17.394Z,10.4429
2023-04-27T05:52:25.375Z,12.0429
2023-04-27T05:53:33.496Z,13.5143
2023-04-27T05:54:41.487Z,12.3643
2023-04-27T05:55:49.682Z,13.9500
2023-04-27T05:56:57.704Z,13.0500
2023-04-27T05:58:08.963Z,11.4786
2023-04-27T05:59:18.470Z,12.7400
2023-04-27T06:00:26.554Z,11.9500
2023-04-27T06:01:34.588Z,11.9857
2023-04-27T06:02:42.956Z,11.9143
2023-04-27T06:03:50.924Z,12.2500
2023-04-27T06:04:59.086Z,12.8357
2023-04-27T06:06:06.904Z,12.4643
2023-04-27T06:07:16.153Z,11.7071
2023-04-27T06:08:23.112Z,17.9571
2023-04-27T06:09:31.069Z,13.3143
2023-04-27T06:10:39.108Z,13.0071
2023-04-27T06:11:47.233Z,14.1286
2023-04-27T06:12:55.347Z,11.9857
2023-04-27T06:14:03.255Z,12.0429
2023-04-27T06:15:11.287Z,12.0857
2023-04-27T06:16:19.449Z,12.3000
2023-04-27T06:17:27.508Z,11.0071
2023-04-27T06:18:35.559Z,11.6929
2023-04-27T06:19:43.646Z,12.9214
2023-04-27T06:20:51.790Z,13.5929
2023-04-27T06:21:59.709Z,12.4286
2023-04-27T06:23:07.789Z,13.0643
2023-04-27T06:24:15.848Z,12.7357
2023-04-27T06:25:27.074Z,13.3000
2023-04-27T06:26:36.862Z,12.9733
2023-04-27T06:27:44.788Z,13.5214
2023-04-27T06:28:52.847Z,13.2571
2023-04-27T06:30:01.043Z,12.8429
2023-04-27T06:31:09.109Z,12.7071
2023-04-27T06:32:17.081Z,12.1071
2023-04-27T06:33:25.109Z,12.6643
2023-04-27T06:34:33.174Z,12.5643
2023-04-27T06:35:41.250Z,12.6500
2023-04-27T06:36:49.338Z,13.5286
2023-04-27T06:37:57.471Z,12.2429
2023-04-27T06:39:05.409Z,12.7286
2023-04-27T06:40:13.485Z,13.7643
2023-04-27T06:41:21.659Z,11.4000
2023-04-27T06:42:29.588Z,11.8286
2023-04-27T06:43:37.569Z,12.7286
2023-04-27T06:44:45.705Z,13.0929
2023-04-27T06:45:53.906Z,11.5786
2023-04-27T06:47:01.848Z,10.8643
2023-04-27T06:48:10.012Z,13.9571
2023-04-27T06:49:17.939Z,13.4357
2023-04-27T06:50:26.027Z,12.7786
2023-04-27T06:51:34.120Z,11.0929
2023-04-27T06:52:42.320Z,12.9429
2023-04-27T06:53:50.258Z,14.4571
2023-04-27T06:54:58.278Z,13.3214
2023-04-27T06:56:06.309Z,13.0000
2023-04-27T06:57:14.310Z,11.9143
2023-04-27T06:58:22.359Z,12.5286
2023-04-27T06:59:30.412Z,12.5714
2023-04-27T07:00:38.518Z,14.0571
2023-04-27T07:01:46.561Z,12.7286
2023-04-27T07:02:54.673Z,11.4643
2023-04-27T07:04:02.780Z,13.1857
2023-04-27T07:05:10.721Z,13.0786
2023-04-27T07:06:18.833Z,11.9857
2023-04-27T07:07:26.909Z,12.3500
2023-04-27T07:08:35.034Z,13.1357
2023-04-27T07:09:43.113Z,12.4643
2023-04-27T07:10:51.136Z,13.0857
2023-04-27T07:11:59.226Z,14.7143
2023-04-27T07:13:09.119Z,12.5286
2023-04-27T07:14:20.077Z,13.3333
2023-04-27T07:15:28.154Z,11.6143
2023-04-27T07:16:36.274Z,14.8286
2023-04-27T07:17:44.261Z,13.8643
2023-04-27T07:18:52.336Z,11.8500
2023-04-27T07:20:00.376Z,11.8071
2023-04-27T07:21:08.549Z,12.0714
2023-04-27T07:22:16.518Z,10.4214
2023-04-27T07:23:24.569Z,12.6643
2023-04-27T07:24:32.690Z,12.0857
2023-04-27T07:25:40.563Z,13.1714
2023-04-27T07:26:48.654Z,12.4214
2023-04-27T07:27:56.704Z,13.6000
2023-04-27T07:29:14.439Z,11.4571
2023-04-27T07:30:17.910Z,10.0067
2023-04-27T07:31:26.301Z,11.6357
2023-04-27T07:32:33.983Z,10.8286
2023-04-27T07:33:42.006Z,11.3500
2023-04-27T07:34:54.082Z,11.0429
2023-04-27T07:36:02.922Z,12.8067
2023-04-27T07:37:11.027Z,10.8786
2023-04-27T07:38:18.976Z,13.1786
2023-04-27T07:39:27.057Z,12.6143
2023-04-27T07:40:35.059Z,12.3286
2023-04-27T07:41:43.223Z,11.2500
2023-04-27T07:42:51.289Z,9.8143
2023-04-27T07:43:59.395Z,13.0714
2023-04-27T07:45:07.514Z,11.2286
2023-04-27T07:46:15.459Z,12.3143
2023-04-27T07:47:23.574Z,11.2571
2023-04-27T07:48:31.544Z,11.3000
2023-04-27T07:49:39.642Z,9.7071
2023-04-27T07:50:47.646Z,10.0143
2023-04-27T07:51:55.782Z,10.9429
2023-04-27T07:53:03.791Z,13.7000
2023-04-27T07:54:11.774Z,11.5643
2023-04-27T07:55:19.859Z,9.7357
2023-04-27T07:56:28.055Z,10.5357
2023-04-27T07:57:36.139Z,12.2071
2023-04-27T07:58:44.076Z,11.1143
2023-04-27T07:59:52.184Z,10.3357
2023-04-27T08:01:00.194Z,9.4714
2023-04-27T08:02:19.113Z,9.0714
2023-04-27T08:03:21.231Z,8.7400
2023-04-27T08:04:29.406Z,9.0071
2023-04-27T08:05:37.490Z,9.1286
2023-04-27T08:06:45.880Z,9.5643
2023-04-27T08:07:53.990Z,10.0071
2023-04-27T08:09:01.550Z,10.6143
2023-04-27T08:10:09.589Z,9.1143
2023-04-27T08:11:17.629Z,10.4214
2023-04-27T08:12:25.639Z,10.2000
2023-04-27T08:13:33.893Z,11.2500
2023-04-27T08:14:41.753Z,12.8571
2023-04-27T08:15:49.825Z,11.4214
2023-04-27T08:16:58.027Z,13.9429
2023-04-27T08:18:05.991Z,11.0000
2023-04-27T08:19:14.207Z,11.8357
2023-04-27T08:20:21.937Z,14.0714
2023-04-27T08:21:29.989Z,13.8714
2023-04-27T08:22:38.063Z,12.0500
2023-04-27T08:23:46.106Z,12.0286
2023-04-27T08:24:54.211Z,13.9214
2023-04-27T08:26:02.311Z,11.9643
2023-04-27T08:27:10.264Z,11.2000
2023-04-27T08:28:18.428Z,11.9429
2023-04-27T08:29:28.813Z,11.7000
2023-04-27T08:30:39.482Z,11.6133
2023-04-27T08:31:47.529Z,12.6929
2023-04-27T08:32:55.559Z,11.6571
2023-04-27T08:34:03.449Z,11.6429
2023-04-27T08:35:11.546Z,11.3286
2023-04-27T08:36:19.584Z,9.7000
2023-04-27T08:37:27.753Z,9.7286
2023-04-27T08:38:35.842Z,9.8286
2023-04-27T08:39:43.804Z,10.8000
2023-04-27T08:40:51.897Z,9.9357
2023-04-27T08:42:00.014Z,8.7071
2023-04-27T08:43:08.008Z,8.2714
2023-04-27T08:44:16.107Z,10.2143
2023-04-27T08:45:24.115Z,10.8500
2023-04-27T08:46:32.163Z,9.0786
2023-04-27T08:47:43.421Z,11.4000
2023-04-27T08:48:53.059Z,11.4133
2023-04-27T08:50:01.121Z,10.0571
2023-04-27T08:51:09.121Z,10.7143
2023-04-27T08:52:17.356Z,10.1571
2023-04-27T08:53:25.404Z,9.8714
2023-04-27T08:54:33.313Z,11.6143
2023-04-27T08:55:41.496Z,10.0143
2023-04-27T08:56:49.519Z,12.4929
2023-04-27T08:57:57.590Z,12.4714
2023-04-27T08:59:05.661Z,12.8500
2023-04-27T09:00:13.711Z,12.4286
2023-04-27T09:01:21.944Z,11.7714
2023-04-27T09:02:30.036Z,10.3071
2023-04-27T09:03:37.995Z,9.8857
2023-04-27T09:04:45.909Z,9.8429
2023-04-27T09:06:04.369Z,10.2214
2023-04-27T09:07:06.897Z,12.5533
2023-04-27T09:08:14.975Z,9.7143
2023-04-27T09:09:23.008Z,11.4000
2023-04-27T09:10:31.283Z,10.7571
2023-04-27T09:11:39.165Z,11.9143
2023-04-27T09:12:47.222Z,12.4286
2023-04-27T09:13:55.225Z,11.2571
2023-04-27T09:15:03.308Z,10.7214
2023-04-27T09:16:11.523Z,11.7643
2023-04-27T09:17:19.339Z,10.5214
2023-04-27T09:18:27.321Z,12.4286
2023-04-27T09:19:35.406Z,12.0000
2023-04-27T09:20:43.552Z,12.1143
2023-04-27T09:21:51.714Z,10.5857
2023-04-27T09:22:59.871Z,10.7500
2023-04-27T09:24:07.744Z,9.5000
2023-04-27T09:25:15.779Z,9.9714
2023-04-27T09:26:23.795Z,10.7071
2023-04-27T09:27:31.824Z,11.8071
2023-04-27T09:28:39.944Z,10.0857
2023-04-27T09:29:48.192Z,11.4571
2023-04-27T09:30:56.055Z,9.3429
2023-04-27T09:32:04.181Z,11.2286
2023-04-27T09:33:12.081Z,9.2143
2023-04-27T09:34:20.122Z,11.6500
2023-04-27T09:35:28.358Z,10.4857
2023-04-27T09:36:36.226Z,8.9786
2023-04-27T09:37:44.426Z,7.3429
2023-04-27T09:38:52.490Z,8.7286
2023-04-27T09:40:00.449Z,8.5357
2023-04-27T09:41:08.594Z,11.9786
2023-04-27T09:42:16.515Z,7.6571
2023-04-27T09:43:24.633Z,8.7000
2023-04-27T09:44:32.917Z,7.3857
2023-04-27T09:45:40.856Z,7.2143
2023-04-27T09:46:48.743Z,8.2857
2023-04-27T09:47:56.887Z,7.3357
2023-04-27T09:49:04.843Z,7.7286
2023-04-27T09:50:12.916Z,7.6214
2023-04-27T09:51:21.071Z,7.8500
2023-04-27T09:52:29.186Z,5.9786
2023-04-27T09:53:37.077Z,5.2429
2023-04-27T09:54:45.234Z,6.9786
2023-04-27T09:55:53.435Z,5.5214
2023-04-27T09:57:01.347Z,7.2643
2023-04-27T09:58:09.375Z,5.1214
2023-04-27T09:59:17.449Z,5.9000
2023-04-27T10:00:25.469Z,7.1143
2023-04-27T10:01:35.274Z,6.1143
2023-04-27T10:02:53.068Z,5.3067
2023-04-27T10:03:59.443Z,6.2867
2023-04-27T10:05:07.364Z,6.4786
2023-04-27T10:06:15.471Z,6.5929
2023-04-27T10:07:23.566Z,6.1857
2023-04-27T10:08:31.891Z,6.1429
2023-04-27T10:09:39.670Z,5.8000
2023-04-27T10:10:47.698Z,4.9857
2023-04-27T10:11:55.727Z,6.2571
2023-04-27T10:13:03.883Z,4.9643
2023-04-27T10:14:11.790Z,4.7857
2023-04-27T10:15:19.836Z,3.6786
2023-04-27T10:16:27.909Z,3.5143
2023-04-27T10:17:36.116Z,3.8857
2023-04-27T10:18:44.052Z,4.4071
2023-04-27T10:19:54.305Z,4.4143
2023-04-27T10:21:05.024Z,4.7733
2023-04-27T10:22:13.166Z,3.5143
2023-04-27T10:23:21.361Z,3.6214
2023-04-27T10:24:29.227Z,4.1714
2023-04-27T10:25:37.323Z,3.4143
2023-04-27T10:26:45.299Z,4.4786
2023-04-27T10:27:53.370Z,4.0000
2023-04-27T10:29:01.324Z,2.7000
2023-04-27T10:30:09.405Z,2.7357
2023-04-27T10:31:17.603Z,2.8643
2023-04-27T10:32:25.683Z,3.0643
2023-04-27T10:33:33.639Z,4.2714
2023-04-27T10:34:41.662Z,2.1000
2023-04-27T10:35:49.856Z,2.8929
2023-04-27T10:36:57.788Z,3.4857
2023-04-27T10:38:05.845Z,2.5500
2023-04-27T10:39:14.217Z,2.7929
2023-04-27T10:40:21.988Z,3.3643
2023-04-27T10:41:30.099Z,2.5143
2023-04-27T10:42:37.974Z,3.5214
2023-04-27T10:43:46.035Z,3.2929
2023-04-27T10:44:54.106Z,2.7357
2023-04-27T10:46:02.346Z,3.5143
2023-04-27T10:47:10.297Z,2.9929
2023-04-27T10:48:18.270Z,3.0429
2023-04-27T10:49:26.441Z,2.4357
2023-04-27T10:50:34.607Z,2.5786
2023-04-27T10:51:42.592Z,2.6357
2023-04-27T10:52:50.636Z,2.9357
2023-04-27T10:53:58.632Z,5.2786
2023-04-27T10:55:06.679Z,3.7286
2023-04-27T10:56:14.741Z,4.1500
2023-04-27T10:57:22.712Z,4.3571
2023-04-27T10:58:41.421Z,2.6857
2023-04-27T10:59:43.960Z,3.3800
2023-04-27T11:00:51.749Z,5.0643
2023-04-27T11:01:59.884Z,2.4429
2023-04-27T11:03:08.037Z,2.7929
2023-04-27T11:04:16.478Z,3.1714
2023-04-27T11:05:24.058Z,2.6857
2023-04-27T11:06:32.194Z,3.5500
2023-04-27T11:07:40.182Z,3.6357
2023-04-27T11:08:48.231Z,7.4571
2023-04-27T11:09:56.284Z,5.2571
2023-04-27T11:11:04.241Z,3.6357
2023-04-27T11:12:12.289Z,2.6500
2023-04-27T11:13:20.393Z,2.3143
2023-04-27T11:14:28.498Z,2.0714
2023-04-27T11:15:36.624Z,2.5000
2023-04-27T11:16:44.687Z,2.4929
2023-04-27T11:17:52.729Z,3.9786
2023-04-27T11:19:00.718Z,3.6071
2023-04-27T11:20:08.801Z,3.6857
2023-04-27T11:21:16.904Z,3.1929
2023-04-27T11:22:24.880Z,2.5714
2023-04-27T11:23:33.060Z,3.7500
2023-04-27T11:24:40.999Z,2.9000
2023-04-27T11:25:48.978Z,3.4357
2023-04-27T11:26:57.074Z,3.1643
2023-04-27T11:28:05.116Z,3.7214
2023-04-27T11:29:13.653Z,3.4571
2023-04-27T11:30:21.311Z,4.2429
2023-04-27T11:31:29.402Z,2.5786
2023-04-27T11:32:37.566Z,3.5571
2023-04-27T11:33:45.457Z,3.5500
2023-04-27T11:34:54.657Z,3.2286
2023-04-27T11:36:06.432Z,3.5467
2023-04-27T11:37:18.429Z,4.2429
2023-04-27T11:38:27.487Z,2.7733
2023-04-27T11:39:35.382Z,4.7786
2023-04-27T11:40:43.435Z,7.2929
2023-04-27T11:41:51.630Z,2.8143
2023-04-27T11:42:59.675Z,2.7571
2023-04-27T11:44:07.758Z,2.2929
2023-04-27T11:45:15.787Z,2.3929
2023-04-27T11:46:23.839Z,2.6571
2023-04-27T11:47:31.935Z,2.8786
2023-04-27T11:48:39.921Z,2.4929
2023-04-27T11:49:47.998Z,3.2500
2023-04-27T11:50:56.110Z,3.8143
2023-04-27T11:52:04.093Z,2.0000
2023-04-27T11:53:12.034Z,3.7071
2023-04-27T11:54:20.082Z,3.7000
2023-04-27T11:55:28.189Z,3.3286
2023-04-27T11:56:36.470Z,3.2714
2023-04-27T11:57:44.401Z,2.5857
2023-04-27T11:58:52.314Z,1.7857
2023-04-27T12:00:00.646Z,2.1929
2023-04-27T12:01:08.587Z,2.1643
2023-04-27T12:02:16.620Z,2.1071
2023-04-27T12:03:24.984Z,2.9214
2023-04-27T12:04:32.907Z,2.3786
2023-04-27T12:05:40.954Z,3.0929
2023-04-27T12:06:48.855Z,3.3714
2023-04-27T12:07:56.877Z,3.7214
2023-04-27T12:09:04.986Z,3.0929
2023-04-27T12:10:12.879Z,1.9643
2023-04-27T12:11:20.965Z,2.6500
2023-04-27T12:12:29.034Z,2.5500
2023-04-27T12:13:37.186Z,3.1500
2023-04-27T12:14:45.352Z,5.0000
2023-04-27T12:15:53.572Z,2.5929
2023-04-27T12:17:01.473Z,4.1714
2023-04-27T12:18:09.602Z,4.4643
2023-04-27T12:19:17.640Z,5.6286
2023-04-27T12:20:25.718Z,5.1429
2023-04-27T12:21:33.611Z,3.4571
2023-04-27T12:22:41.717Z,3.7786
2023-04-27T12:23:49.863Z,3.8286
2023-04-27T12:24:57.734Z,4.3429
2023-04-27T12:26:05.806Z,5.4643
2023-04-27T12:27:13.858Z,4.8571
2023-04-27T12:28:22.003Z,3.6286
2023-04-27T12:29:29.998Z,4.0929
2023-04-27T12:30:38.156Z,3.7643
2023-04-27T12:31:46.256Z,2.5500
2023-04-27T12:32:54.416Z,3.7357
2023-04-27T12:34:02.304Z,3.0714
2023-04-27T12:35:10.494Z,2.7857
2023-04-27T12:36:18.567Z,2.7857
2023-04-27T12:37:27.146Z,3.3357
2023-04-27T12:38:34.440Z,4.0500
2023-04-27T12:39:42.516Z,3.5429
2023-04-27T12:40:50.608Z,3.4357
2023-04-27T12:41:58.806Z,3.3643
2023-04-27T12:43:06.734Z,3.5786
2023-04-27T12:44:15.068Z,3.5214
2023-04-27T12:45:22.905Z,3.6214
2023-04-27T12:46:30.995Z,2.7643
2023-04-27T12:47:58.345Z,2.8857
2023-04-27T12:48:51.985Z,3.8733
2023-04-27T12:50:00.013Z,2.4357
2023-04-27T12:51:08.242Z,2.2929
2023-04-27T12:52:16.132Z,2.3214
2023-04-27T12:53:24.150Z,2.7143
2023-04-27T12:54:32.240Z,3.4857
2023-04-27T12:55:40.433Z,2.2714
2023-04-27T12:56:48.385Z,2.0143
2023-04-27T12:57:56.545Z,1.6500
2023-04-27T12:59:04.604Z,3.4714
2023-04-27T13:00:12.690Z,2.4000
2023-04-27T13:01:20.634Z,2.8929
2023-04-27T13:02:28.938Z,2.0429
2023-04-27T13:03:37.095Z,2.9429
2023-04-27T13:04:45.055Z,2.5071
2023-04-27T13:05:53.028Z,3.1714
2023-04-27T13:07:00.938Z,2.9214
2023-04-27T13:08:08.997Z,2.9429
2023-04-27T13:09:17.099Z,2.1143
2023-04-27T13:10:25.226Z,2.4857
2023-04-27T13:11:33.282Z,2.4643
2023-04-27T13:12:41.608Z,2.9571
2023-04-27T13:13:49.411Z,3.2786
2023-04-27T13:14:57.547Z,4.0500
2023-04-27T13:16:05.598Z,2.8643
2023-04-27T13:17:13.627Z,3.3071
2023-04-27T13:18:21.663Z,3.4643
2023-04-27T13:19:29.725Z,2.3643
2023-04-27T13:20:38.002Z,2.1214
2023-04-27T13:21:45.709Z,1.9786
2023-04-27T13:22:53.773Z,2.8143
2023-04-27T13:24:01.841Z,3.7643
2023-04-27T13:25:10.020Z,4.9571
2023-04-27T13:26:17.968Z,2.7714
2023-04-27T13:27:26.421Z,2.8929
2023-04-27T13:28:34.161Z,2.0500
2023-04-27T13:29:42.249Z,2.1143
2023-04-27T13:30:50.251Z,3.4214
2023-04-27T13:31:58.384Z,2.2571
2023-04-27T13:33:21.096Z,3.0143
2023-04-27T13:34:19.322Z,1.7933
2023-04-27T13:35:27.413Z,1.7214
2023-04-27T13:36:35.306Z,2.7857
2023-04-27T13:37:43.402Z,2.9071
2023-04-27T13:38:51.444Z,2.1786
2023-04-27T13:39:59.634Z,2.5429
2023-04-27T13:41:07.664Z,2.9786
2023-04-27T13:42:15.701Z,1.9071
2023-04-27T13:43:23.806Z,1.9071
2023-04-27T13:44:31.972Z,2.6500
2023-04-27T13:45:39.947Z,2.5929
2023-04-27T13:46:48.059Z,2.3714
2023-04-27T13:47:56.040Z,2.7286
2023-04-27T13:49:04.108Z,2.4357
2023-04-27T13:50:12.176Z,2.6571
2023-04-27T13:51:20.144Z,1.5143
2023-04-27T13:52:28.174Z,3.0143
2023-04-27T13:53:36.278Z,2.1000
2023-04-27T13:54:44.654Z,1.9357
2023-04-27T13:55:52.488Z,1.6929
2023-04-27T13:57:00.612Z,2.3929
2023-04-27T13:58:08.680Z,2.1929
2023-04-27T13:59:16.825Z,3.1786
2023-04-27T14:00:24.841Z,3.1929